createdAt,value
2022-10-11T00:00:43.747Z,9.20
2022-10-11T00:05:37.113Z,9.80
2022-10-11T00:08:05.795Z,8.98
2022-10-11T00:10:33.873Z,7.72
2022-10-11T00:13:00.841Z,8.40
2022-10-11T00:15:28.698Z,12.38
2022-10-11T00:17:55.927Z,11.65
2022-10-11T00:20:22.773Z,10.05
2022-10-11T00:22:49.555Z,10.45
2022-10-11T00:25:16.933Z,9.60
2022-10-11T00:27:43.565Z,10.35
2022-10-11T00:30:11.328Z,7.90
2022-10-11T00:32:38.591Z,9.23
2022-10-11T00:35:07.121Z,10.10
2022-10-11T00:37:35.241Z,8.68
2022-10-11T00:40:02.984Z,10.68
2022-10-11T00:42:29.554Z,9.85
2022-10-11T00:45:28.151Z,7.95
2022-10-11T00:47:56.995Z,8.35
2022-10-11T00:50:24.670Z,6.43
2022-10-11T00:52:57.537Z,6.50
2022-10-11T00:55:26.866Z,6.95
2022-10-11T00:57:55.485Z,6.88
2022-10-11T01:00:22.151Z,7.40
2022-10-11T01:02:49.220Z,8.50
2022-10-11T01:05:29.307Z,8.85
2022-10-11T01:07:58.965Z,7.20
2022-10-11T01:10:26.285Z,6.60
2022-10-11T01:13:20.643Z,7.57
2022-10-11T01:15:58.498Z,9.07
2022-10-11T01:18:32.845Z,7.53
2022-10-11T01:21:08.515Z,8.05
2022-10-11T01:24:02.699Z,7.53
2022-10-11T01:27:01.313Z,7.65
2022-10-11T01:29:57.709Z,6.75
2022-10-11T01:32:24.227Z,6.45
2022-10-11T01:35:13.197Z,7.18
2022-10-11T01:37:45.572Z,7.70
2022-10-11T01:40:24.134Z,6.95
2022-10-11T01:42:52.226Z,8.00
2022-10-11T01:45:20.708Z,6.22
2022-10-11T01:47:47.601Z,8.75
2022-10-11T01:50:38.908Z,7.25
2022-10-11T01:53:34.664Z,8.73
2022-10-11T01:56:26.358Z,6.03
2022-10-11T01:59:18.404Z,6.50
2022-10-11T02:01:50.806Z,6.35
2022-10-11T02:04:25.000Z,7.50
2022-10-11T02:07:01.062Z,7.90
2022-10-11T02:09:40.647Z,7.03
2022-10-11T02:12:12.179Z,5.82
2022-10-11T02:14:43.775Z,7.57
2022-10-11T02:17:15.221Z,7.25
2022-10-11T02:19:48.233Z,7.32
2022-10-11T02:22:31.896Z,8.80
2022-10-11T02:25:02.703Z,10.35
2022-10-11T02:27:33.208Z,10.63
2022-10-11T02:30:03.400Z,6.82
2022-10-11T02:32:32.262Z,5.95
2022-10-11T02:35:01.858Z,6.95
2022-10-11T02:38:02.292Z,7.68
2022-10-11T02:40:33.278Z,8.45
2022-10-11T02:43:03.806Z,11.10
2022-10-11T02:45:44.714Z,8.85
2022-10-11T02:48:12.537Z,8.15
2022-10-11T02:50:40.340Z,8.43
2022-10-11T02:53:07.574Z,7.80
2022-10-11T02:55:34.165Z,7.22
2022-10-11T02:58:00.935Z,7.85
2022-10-11T03:00:29.362Z,7.90
2022-10-11T03:02:55.901Z,7.03
2022-10-11T03:05:22.553Z,7.47
2022-10-11T03:07:49.091Z,6.75
2022-10-11T03:10:15.806Z,6.53
2022-10-11T03:12:42.410Z,7.22
2022-10-11T03:15:09.421Z,9.25
2022-10-11T03:17:37.311Z,8.68
2022-10-11T03:20:06.026Z,5.60
2022-10-11T03:22:32.573Z,6.97
2022-10-11T03:25:03.669Z,9.55
2022-10-11T03:27:31.079Z,9.02
2022-10-11T03:29:57.815Z,9.85
2022-10-11T03:32:24.583Z,7.20
2022-10-11T03:34:51.145Z,7.55
2022-10-11T03:37:18.231Z,8.18
2022-10-11T03:39:45.660Z,6.63
2022-10-11T03:42:12.762Z,5.95
2022-10-11T03:44:39.463Z,8.10
2022-10-11T03:47:06.051Z,8.70
2022-10-11T03:49:32.651Z,11.40
2022-10-11T03:51:59.962Z,8.43
2022-10-11T03:54:26.608Z,6.20
2022-10-11T03:56:53.269Z,9.15
2022-10-11T03:59:19.904Z,7.85
2022-10-11T04:01:46.526Z,7.63
2022-10-11T04:04:13.211Z,7.68
2022-10-11T04:06:39.909Z,7.68
2022-10-11T04:09:06.514Z,9.23
2022-10-11T04:11:33.153Z,6.93
2022-10-11T04:13:59.813Z,8.73
2022-10-11T04:16:26.458Z,7.63
2022-10-11T04:18:53.181Z,6.78
2022-10-11T04:21:19.762Z,9.95
2022-10-11T04:23:46.329Z,10.63
2022-10-11T04:26:13.073Z,10.68
2022-10-11T04:28:39.675Z,7.80
2022-10-11T04:31:07.914Z,9.48
2022-10-11T04:33:34.526Z,8.25
2022-10-11T04:36:01.694Z,7.00
2022-10-11T04:38:28.715Z,9.90
2022-10-11T04:40:55.408Z,7.88
2022-10-11T04:43:22.026Z,9.40
2022-10-11T04:45:52.243Z,8.55
2022-10-11T04:48:21.337Z,8.60
2022-10-11T04:50:48.080Z,10.75
2022-10-11T04:53:16.634Z,8.05
2022-10-11T04:55:43.239Z,10.10
2022-10-11T04:58:10.031Z,12.00
2022-10-11T05:00:36.617Z,9.60
2022-10-11T05:03:03.247Z,8.85
2022-10-11T05:05:29.835Z,8.68
2022-10-11T05:07:56.441Z,8.68
2022-10-11T05:10:22.980Z,8.05
2022-10-11T05:12:49.517Z,8.57
2022-10-11T05:15:16.172Z,6.50
2022-10-11T05:17:42.786Z,7.00
2022-10-11T05:20:10.019Z,6.97
2022-10-11T05:22:36.674Z,7.75
2022-10-11T05:25:03.466Z,9.18
2022-10-11T05:27:30.138Z,12.45
2022-10-11T05:29:56.751Z,10.70
2022-10-11T05:32:27.600Z,12.93
2022-10-11T05:34:54.534Z,14.30
2022-10-11T05:37:21.296Z,12.43
2022-10-11T05:39:47.855Z,14.40
2022-10-11T05:42:14.458Z,14.75
2022-10-11T05:44:41.043Z,10.20
2022-10-11T05:47:07.791Z,13.63
2022-10-11T05:49:34.413Z,11.55
2022-10-11T05:52:00.995Z,13.20
2022-10-11T05:54:31.472Z,12.57
2022-10-11T05:56:58.026Z,11.80
2022-10-11T05:59:24.605Z,11.77
2022-10-11T06:01:51.218Z,13.10
2022-10-11T06:04:19.003Z,11.88
2022-10-11T06:06:45.757Z,12.00
2022-10-11T06:09:12.802Z,13.55
2022-10-11T06:11:41.374Z,20.05
2022-10-11T06:14:09.488Z,16.77
2022-10-11T06:16:36.023Z,20.45
2022-10-11T06:19:02.878Z,21.63
2022-10-11T06:21:29.770Z,18.20
2022-10-11T06:24:01.154Z,16.58
2022-10-11T06:26:29.348Z,25.40
2022-10-11T06:28:56.460Z,28.50
2022-10-11T06:31:23.397Z,17.35
2022-10-11T06:33:49.955Z,14.85
2022-10-11T06:36:17.121Z,15.00
2022-10-11T06:38:45.396Z,13.13
2022-10-11T06:41:22.358Z,14.18
2022-10-11T06:43:51.710Z,12.30
2022-10-11T06:46:20.010Z,13.68
2022-10-11T06:48:48.250Z,11.95
2022-10-11T06:51:16.942Z,11.48
2022-10-11T06:53:43.750Z,12.43
2022-10-11T06:56:12.317Z,11.45
2022-10-11T06:58:39.880Z,11.80
2022-10-11T07:01:13.006Z,15.10
2022-10-11T07:03:42.649Z,11.82
2022-10-11T07:06:11.579Z,8.75
2022-10-11T07:08:38.672Z,12.85
2022-10-11T07:11:10.547Z,9.82
2022-10-11T07:13:38.275Z,10.07
2022-10-11T07:16:08.130Z,12.27
2022-10-11T07:18:35.278Z,10.88
2022-10-11T07:21:07.852Z,8.63
2022-10-11T07:23:35.239Z,8.82
2022-10-11T07:26:01.971Z,10.98
2022-10-11T07:28:30.450Z,10.75
2022-10-11T07:30:58.033Z,11.95
2022-10-11T07:33:25.073Z,11.40
2022-10-11T07:35:56.503Z,16.60
2022-10-11T07:38:23.062Z,16.30
2022-10-11T07:40:49.807Z,17.17
2022-10-11T07:43:16.548Z,20.00
2022-10-11T07:45:45.436Z,12.60
2022-10-11T07:48:12.092Z,10.50
2022-10-11T07:50:38.699Z,9.73
2022-10-11T07:53:05.264Z,12.68
2022-10-11T07:55:40.420Z,10.25
2022-10-11T07:58:12.012Z,15.05
2022-10-11T08:00:42.162Z,11.55
2022-10-11T08:03:10.232Z,10.38
2022-10-11T08:05:39.023Z,12.15
2022-10-11T08:08:05.970Z,10.48
2022-10-11T08:10:38.106Z,11.05
2022-10-11T08:13:05.324Z,12.93
2022-10-11T08:15:31.910Z,11.05
2022-10-11T08:17:58.473Z,11.05
2022-10-11T08:20:25.188Z,12.60
2022-10-11T08:22:51.758Z,10.55
2022-10-11T08:25:18.349Z,12.38
2022-10-11T08:27:44.932Z,10.77
2022-10-11T08:30:12.100Z,8.88
2022-10-11T08:32:38.877Z,9.85
2022-10-11T08:35:06.220Z,8.93
2022-10-11T08:37:32.860Z,9.57
2022-10-11T08:39:59.437Z,12.98
2022-10-11T08:42:35.943Z,11.35
2022-10-11T08:45:40.639Z,9.55
2022-10-11T08:48:21.165Z,11.40
2022-10-11T08:50:51.047Z,12.10
2022-10-11T08:53:47.731Z,8.48
2022-10-11T08:56:16.427Z,10.80
2022-10-11T08:59:08.909Z,10.57
2022-10-11T09:01:36.037Z,10.27
2022-10-11T09:04:03.625Z,8.98
2022-10-11T09:06:56.471Z,10.10
2022-10-11T09:09:44.918Z,9.27
2022-10-11T09:12:40.952Z,9.02
2022-10-11T09:15:12.779Z,5.80
2022-10-11T09:17:51.219Z,9.13
2022-10-11T09:20:48.813Z,6.38
2022-10-11T09:23:34.081Z,10.45
2022-10-11T09:26:19.420Z,8.23
2022-10-11T09:29:03.700Z,9.02
2022-10-11T09:31:31.430Z,10.65
2022-10-11T09:33:59.973Z,8.90
2022-10-11T09:36:36.170Z,6.75
2022-10-11T09:39:16.805Z,7.30
2022-10-11T09:41:51.986Z,7.07
2022-10-11T09:44:27.982Z,6.93
2022-10-11T09:46:55.876Z,6.47
2022-10-11T09:49:28.294Z,7.18
2022-10-11T09:51:58.603Z,7.40
2022-10-11T09:54:46.492Z,7.85
2022-10-11T09:57:23.867Z,8.65
2022-10-11T10:00:00.169Z,6.93
2022-10-11T10:02:29.010Z,10.73
2022-10-11T10:04:58.645Z,8.68
2022-10-11T10:07:25.920Z,7.32
2022-10-11T10:09:53.175Z,6.05
2022-10-11T10:12:23.500Z,9.10
2022-10-11T10:15:13.799Z,8.40
2022-10-11T10:17:49.324Z,8.82
2022-10-11T10:20:34.493Z,5.88
2022-10-11T10:23:09.730Z,7.70
2022-10-11T10:25:43.073Z,7.47
2022-10-11T10:28:25.520Z,11.70
2022-10-11T10:30:54.368Z,11.10
2022-10-11T10:33:25.939Z,7.97
2022-10-11T10:35:58.072Z,7.55
2022-10-11T10:38:40.672Z,7.07
2022-10-11T10:41:13.754Z,8.38
2022-10-11T10:43:43.024Z,8.38
2022-10-11T10:46:47.331Z,6.65
2022-10-11T10:49:53.246Z,6.88
2022-10-11T10:52:27.131Z,9.95
2022-10-11T10:55:05.515Z,9.57
2022-10-11T10:57:34.981Z,6.38
2022-10-11T11:00:10.342Z,5.65
2022-10-11T11:02:55.303Z,11.90
2022-10-11T11:05:37.057Z,8.38
2022-10-11T11:08:12.175Z,7.22
2022-10-11T11:11:10.634Z,6.30
2022-10-11T11:13:49.923Z,6.53
2022-10-11T11:16:16.464Z,5.25
2022-10-11T11:18:52.051Z,8.13
2022-10-11T11:21:41.703Z,7.18
2022-10-11T11:24:34.876Z,7.07
2022-10-11T11:27:29.507Z,7.05
2022-10-11T11:30:01.885Z,4.93
2022-10-11T11:32:45.578Z,6.15
2022-10-11T11:36:05.563Z,6.20
2022-10-11T11:38:53.644Z,7.72
2022-10-11T11:41:28.630Z,7.15
2022-10-11T11:44:30.009Z,5.25
2022-10-11T11:47:02.583Z,7.22
2022-10-11T11:49:37.367Z,12.50
2022-10-11T11:52:06.693Z,6.75
2022-10-11T11:55:05.933Z,6.15
2022-10-11T11:57:53.828Z,6.80
2022-10-11T12:00:23.518Z,7.30
2022-10-11T12:03:11.692Z,5.22
2022-10-11T12:05:38.425Z,7.63
2022-10-11T12:08:08.437Z,8.40
2022-10-11T12:10:50.100Z,9.47
2022-10-11T12:13:35.274Z,7.68
2022-10-11T12:16:13.718Z,7.10
2022-10-11T12:19:02.374Z,5.45
2022-10-11T12:21:35.511Z,9.63
2022-10-11T12:24:11.337Z,6.20
2022-10-11T12:26:46.846Z,11.20
2022-10-11T12:29:51.091Z,9.77
2022-10-11T12:32:26.911Z,6.93
2022-10-11T12:35:31.466Z,7.10
2022-10-11T12:38:14.797Z,8.57
2022-10-11T12:40:42.962Z,9.90
2022-10-11T12:43:22.510Z,8.63
2022-10-11T12:45:49.468Z,6.40
2022-10-11T12:48:19.007Z,7.72
2022-10-11T12:50:48.463Z,8.00
2022-10-11T12:53:21.134Z,6.32
2022-10-11T12:56:02.556Z,7.07
2022-10-11T12:58:38.385Z,7.45
2022-10-11T13:01:10.272Z,7.43
2022-10-11T13:03:40.778Z,8.55
2022-10-11T13:06:33.914Z,8.55
2022-10-11T13:09:09.465Z,9.60
2022-10-11T13:11:40.579Z,11.45
2022-10-11T13:14:16.847Z,7.45
2022-10-11T13:17:11.208Z,6.13
2022-10-11T13:22:20.730Z,8.25
2022-10-11T13:24:47.379Z,7.22
2022-10-11T13:27:20.789Z,8.82
2022-10-11T13:29:49.009Z,7.82
2022-10-11T13:32:26.104Z,7.13
2022-10-11T13:37:30.055Z,11.05
2022-10-11T13:39:57.438Z,6.75
2022-10-11T13:42:29.746Z,6.05
2022-10-11T13:44:58.132Z,7.97
2022-10-11T13:47:30.676Z,8.43
2022-10-11T13:50:10.835Z,7.63
2022-10-11T13:52:59.783Z,7.68
2022-10-11T13:55:28.533Z,6.88
2022-10-11T13:57:57.694Z,7.50
2022-10-11T14:00:26.994Z,7.07
2022-10-11T14:03:15.443Z,7.85
2022-10-11T14:05:54.430Z,5.95
2022-10-11T14:08:54.038Z,5.60
2022-10-11T14:11:39.186Z,6.65
2022-10-11T14:14:28.846Z,5.18
2022-10-11T14:17:10.587Z,6.25
2022-10-11T14:19:39.712Z,7.65
2022-10-11T14:22:11.912Z,5.90
2022-10-11T14:24:38.637Z,6.35
2022-10-11T14:27:06.178Z,9.57
2022-10-11T14:29:35.660Z,5.78
2022-10-11T14:32:14.078Z,5.22
2022-10-11T14:34:42.613Z,9.35
2022-10-11T14:37:12.429Z,4.90
2022-10-11T14:39:39.052Z,5.93
2022-10-11T14:42:06.008Z,5.18
2022-10-11T14:44:32.577Z,5.43
2022-10-11T14:46:59.516Z,6.82
2022-10-11T14:49:29.008Z,6.03
2022-10-11T14:51:57.717Z,4.70
2022-10-11T14:54:26.046Z,4.63
2022-10-11T14:56:54.741Z,4.90
2022-10-11T14:59:23.978Z,7.35
2022-10-11T15:01:53.483Z,4.30
2022-10-11T15:04:25.362Z,4.75
2022-10-11T15:06:53.922Z,6.18
2022-10-11T15:09:21.290Z,6.75
2022-10-11T15:11:49.383Z,10.25
2022-10-11T15:14:16.100Z,6.32
2022-10-11T15:16:43.093Z,7.78
2022-10-11T15:19:21.700Z,4.38
2022-10-11T15:21:48.718Z,6.25
2022-10-11T15:24:15.698Z,6.82
2022-10-11T15:26:42.459Z,9.70
2022-10-11T15:29:14.099Z,8.82
2022-10-11T15:31:40.755Z,6.00
2022-10-11T15:34:07.353Z,7.32
2022-10-11T15:36:34.085Z,8.02
2022-10-11T15:39:03.056Z,10.82
2022-10-11T15:41:29.662Z,6.63
2022-10-11T15:43:56.270Z,6.85
2022-10-11T15:46:23.353Z,8.95
2022-10-11T15:48:51.408Z,7.72
2022-10-11T15:51:18.585Z,7.50
2022-10-11T15:53:45.298Z,9.43
2022-10-11T15:56:17.182Z,8.50
2022-10-11T15:58:44.441Z,7.45
2022-10-11T16:01:19.348Z,8.23
2022-10-11T16:03:47.939Z,9.90
2022-10-11T16:06:15.159Z,8.40
2022-10-11T16:08:41.723Z,6.57
2022-10-11T16:11:09.831Z,7.72
2022-10-11T16:13:36.693Z,6.95
2022-10-11T16:16:06.249Z,6.95
2022-10-11T16:18:35.686Z,8.05
2022-10-11T16:21:10.193Z,9.27
2022-10-11T16:23:37.530Z,7.65
2022-10-11T16:26:07.999Z,6.70
2022-10-11T16:28:35.611Z,8.75
2022-10-11T16:31:18.071Z,13.27
2022-10-11T16:33:47.835Z,10.73
2022-10-11T16:36:32.484Z,9.02
2022-10-11T16:39:00.355Z,7.95
2022-10-11T16:41:26.938Z,10.13
2022-10-11T16:43:54.738Z,7.95
2022-10-11T16:46:22.048Z,9.63
2022-10-11T16:48:48.858Z,7.63
2022-10-11T16:51:15.527Z,8.40
2022-10-11T16:53:42.180Z,7.95
2022-10-11T16:56:11.312Z,11.32
2022-10-11T16:58:37.956Z,9.55
2022-10-11T17:01:09.629Z,8.30
2022-10-11T17:03:36.844Z,9.77
2022-10-11T17:06:04.787Z,9.90
2022-10-11T17:08:31.708Z,9.70
2022-10-11T17:10:58.292Z,23.23
2022-10-11T17:13:25.100Z,11.32
2022-10-11T17:15:51.676Z,13.43
2022-10-11T17:18:18.587Z,14.55
2022-10-11T17:20:45.311Z,9.75
2022-10-11T17:23:12.120Z,10.65
2022-10-11T17:25:46.467Z,11.25
2022-10-11T17:28:13.214Z,11.75
2022-10-11T17:30:42.797Z,8.35
2022-10-11T17:33:10.316Z,16.48
2022-10-11T17:35:36.899Z,9.27
2022-10-11T17:38:06.359Z,13.40
2022-10-11T17:40:33.259Z,11.45
2022-10-11T17:42:59.889Z,9.80
2022-10-11T17:45:26.509Z,8.80
2022-10-11T17:47:53.864Z,9.85
2022-10-11T17:50:20.506Z,9.07
2022-10-11T17:52:47.224Z,9.90
2022-10-11T17:55:13.763Z,13.20
2022-10-11T17:57:40.510Z,9.45
2022-10-11T18:00:07.714Z,8.32
2022-10-11T18:02:34.300Z,10.18
2022-10-11T18:05:00.928Z,11.70
2022-10-11T18:07:27.500Z,9.35
2022-10-11T18:09:54.214Z,9.82
2022-10-11T18:12:21.097Z,7.55
2022-10-11T18:14:47.814Z,9.25
2022-10-11T18:17:14.478Z,10.45
2022-10-11T18:19:41.024Z,11.95
2022-10-11T18:22:07.639Z,9.27
2022-10-11T18:24:34.624Z,11.13
2022-10-11T18:27:01.461Z,11.77
2022-10-11T18:29:28.637Z,10.70
2022-10-11T18:31:55.207Z,9.02
2022-10-11T18:34:21.787Z,11.68
2022-10-11T18:36:48.367Z,11.48
2022-10-11T18:39:15.385Z,17.13
2022-10-11T18:41:45.545Z,21.45
2022-10-11T18:44:14.377Z,18.95
2022-10-11T18:46:41.315Z,22.38
2022-10-11T18:49:08.897Z,15.45
2022-10-11T18:51:40.938Z,16.63
2022-10-11T18:54:10.052Z,14.52
2022-10-11T18:56:37.119Z,21.08
2022-10-11T18:59:05.587Z,14.55
2022-10-11T19:01:40.973Z,16.90
2022-10-11T19:04:10.162Z,12.98
2022-10-11T19:06:39.567Z,13.88
2022-10-11T19:09:10.749Z,13.85
2022-10-11T19:11:38.256Z,12.23
2022-10-11T19:14:07.084Z,11.85
2022-10-11T19:16:40.161Z,12.30
2022-10-11T19:19:07.656Z,12.30
2022-10-11T19:21:34.233Z,13.75
2022-10-11T19:24:01.136Z,12.32
2022-10-11T19:26:33.704Z,12.63
2022-10-11T19:29:01.266Z,10.73
2022-10-11T19:31:28.583Z,12.82
2022-10-11T19:33:56.843Z,12.13
2022-10-11T19:36:24.055Z,14.32
2022-10-11T19:38:51.066Z,11.93
2022-10-11T19:41:19.701Z,13.48
2022-10-11T19:43:46.788Z,12.60
2022-10-11T19:46:20.248Z,12.20
2022-10-11T19:48:54.569Z,13.88
2022-10-11T19:51:24.136Z,11.13
2022-10-11T19:54:02.605Z,10.88
2022-10-11T19:56:31.561Z,12.00
2022-10-11T19:58:58.238Z,11.43
2022-10-11T20:01:27.557Z,14.70
2022-10-11T20:03:56.675Z,11.27
2022-10-11T20:06:25.711Z,15.70
2022-10-11T20:09:04.901Z,14.48
2022-10-11T20:11:39.137Z,11.30
2022-10-11T20:14:06.005Z,19.33
2022-10-11T20:16:32.575Z,32.28
2022-10-11T20:18:59.369Z,24.52
2022-10-11T20:21:28.432Z,43.95
2022-10-11T20:23:59.564Z,41.92
2022-10-11T20:26:27.888Z,31.58
2022-10-11T20:28:56.180Z,22.52
2022-10-11T20:31:25.917Z,18.65
2022-10-11T20:33:55.978Z,25.23
2022-10-11T20:36:23.529Z,19.40
2022-10-11T20:38:50.634Z,21.67
2022-10-11T20:41:29.166Z,17.98
2022-10-11T20:43:57.917Z,18.00
2022-10-11T20:46:26.913Z,19.73
2022-10-11T20:49:01.764Z,22.67
2022-10-11T20:51:30.022Z,21.63
2022-10-11T20:53:56.755Z,23.60
2022-10-11T20:56:23.836Z,15.75
2022-10-11T20:58:52.635Z,15.27
2022-10-11T21:01:26.115Z,14.65
2022-10-11T21:03:53.307Z,15.07
2022-10-11T21:06:20.027Z,17.75
2022-10-11T21:08:46.563Z,19.55
2022-10-11T21:11:13.174Z,21.05
2022-10-11T21:13:40.023Z,23.60
2022-10-11T21:16:10.863Z,22.58
2022-10-11T21:18:38.042Z,40.88
2022-10-11T21:21:10.542Z,27.83
2022-10-11T21:23:37.255Z,31.20
2022-10-11T21:26:06.400Z,18.17
2022-10-11T21:28:33.305Z,17.08
2022-10-11T21:31:12.442Z,41.42
2022-10-11T21:33:40.725Z,35.42
2022-10-11T21:36:10.467Z,42.97
2022-10-11T21:38:37.570Z,39.38
2022-10-11T21:41:05.600Z,19.88
2022-10-11T21:43:33.649Z,16.65
2022-10-11T21:46:00.231Z,44.92
2022-10-11T21:48:29.376Z,43.67
2022-10-11T21:50:55.950Z,40.60
2022-10-11T21:53:22.521Z,24.17
2022-10-11T21:55:56.930Z,20.42
2022-10-11T21:58:23.494Z,20.27
2022-10-11T22:00:50.082Z,19.35
2022-10-11T22:03:16.674Z,22.30
2022-10-11T22:05:44.765Z,13.93
2022-10-11T22:08:12.673Z,10.27
2022-10-11T22:10:42.534Z,11.75
2022-10-11T22:13:09.168Z,10.85
2022-10-11T22:15:36.842Z,11.60
2022-10-11T22:18:03.703Z,10.02
2022-10-11T22:20:32.578Z,10.07
2022-10-11T22:22:59.312Z,12.63
2022-10-11T22:25:25.939Z,12.70
2022-10-11T22:27:52.571Z,14.25
2022-10-11T22:30:19.175Z,13.00
2022-10-11T22:32:45.910Z,12.90
2022-10-11T22:35:12.475Z,13.43
2022-10-11T22:37:39.013Z,9.65
2022-10-11T22:40:06.149Z,9.35
2022-10-11T22:42:32.712Z,13.70
2022-10-11T22:44:59.898Z,14.13
2022-10-11T22:47:26.732Z,12.52
2022-10-11T22:49:53.358Z,10.00
2022-10-11T22:52:19.929Z,10.10
2022-10-11T22:54:46.675Z,11.95
2022-10-11T22:57:13.265Z,13.88
2022-10-11T22:59:39.822Z,12.13
2022-10-11T23:02:06.434Z,13.50
2022-10-11T23:04:32.996Z,10.05
2022-10-11T23:07:04.647Z,11.10
2022-10-11T23:09:31.680Z,10.55
2022-10-11T23:11:59.387Z,9.38
2022-10-11T23:14:26.009Z,9.38
2022-10-11T23:16:53.276Z,12.82
2022-10-11T23:19:19.866Z,13.00
2022-10-11T23:21:46.738Z,13.00
2022-10-11T23:24:13.421Z,11.07
2022-10-11T23:26:39.974Z,12.77
2022-10-11T23:29:06.540Z,11.88
2022-10-11T23:31:33.081Z,13.73
2022-10-11T23:33:59.688Z,11.65
2022-10-11T23:36:26.449Z,10.80
2022-10-11T23:38:57.766Z,12.15
2022-10-11T23:43:52.886Z,10.55
2022-10-11T23:46:19.500Z,11.90
2022-10-11T23:48:46.157Z,11.07
2022-10-11T23:51:13.202Z,11.45
2022-10-11T23:53:39.828Z,11.80
2022-10-11T23:56:06.798Z,12.15
